Time;durP1;ratioP1;P1;durP2;ratioP2;P2;SDS_P1;SDS_P2;PMS_P1;PMS_P2;Temp;Humidity;BMP_temperature;BMP_pressure;BME280_temperature;BME280_humidity;BME280_pressure;Samples;Min_cycle;Max_cycle;Signal;HPM_P1;HPM_P2
2021/09/06 00:00:10;;;;;;;;;;;;;;;18.88;100.00;99645.38;5102132;28;19915;-58
2021/09/06 00:02:35;;;;;;;;;;;;;;;18.71;100.00;99637.66;5100447;28;19916;-60
2021/09/06 00:05:00;;;;;;;;;;;;;;;18.71;100.00;99635.03;5103155;28;20285;-62
2021/09/06 00:07:26;;;;;;;;;;;;;;;18.53;100.00;99632.50;5085393;28;19931;-63
2021/09/06 00:10:02;;;;;;;;;;;;;;;18.41;100.00;99632.34;5102324;28;20002;-59
2021/09/06 00:12:27;;;;;;;;;;;;;;;18.64;100.00;99626.72;5084149;28;19923;-60
2021/09/06 00:14:53;;;;;;;;;;;;;;;18.56;100.00;99623.66;5102989;28;19964;-60
2021/09/06 00:17:18;;;;;;;;;;;;;;;18.63;100.00;99626.78;5101747;28;20292;-59
2021/09/06 00:19:43;;;;;;;;;;;;;;;18.35;100.00;99629.13;5102935;28;19915;-61
2021/09/06 00:22:09;;;;;;;;;;;;;;;18.26;100.00;99631.41;5084526;28;19920;-61
2021/09/06 00:24:35;;;;;;;;;;;;;;;18.22;100.00;99625.50;5101303;28;19911;-60
2021/09/06 00:27:00;;;;;;;;;;;;;;;18.22;100.00;99633.31;5101904;28;20538;-62
2021/09/06 00:29:26;;;;;;;;;;;;;;;18.05;100.00;99625.56;5102814;28;19920;-62
2021/09/06 00:31:51;;;;;;;;;;;;;;;18.08;100.00;99625.41;5099754;28;19931;-61
2021/09/06 00:34:16;;;;;;;;;;;;;;;17.95;100.00;99631.25;5101603;28;19920;-62
2021/09/06 00:36:42;;;;;;;;;;;;;;;18.03;100.00;99617.81;5100922;28;19923;-61
2021/09/06 00:39:07;;;;;;;;;;;;;;;17.82;100.00;99619.78;5101263;28;19923;-61
2021/09/06 00:41:32;;;;;;;;;;;;;;;17.98;100.00;99615.47;5081245;28;19925;-61
2021/09/06 00:43:58;;;;;;;;;;;;;;;17.90;100.00;99617.63;5099997;28;19919;-61
2021/09/06 00:46:23;;;;;;;;;;;;;;;17.78;100.00;99607.81;5084056;28;19928;-62
2021/09/06 00:48:50;;;;;;;;;;;;;;;17.53;100.00;99614.28;5101138;28;19930;-61
2021/09/06 00:51:15;;;;;;;;;;;;;;;17.98;100.00;99605.03;5082962;28;19927;-62
2021/09/06 00:53:41;;;;;;;;;;;;;;;18.00;100.00;99611.94;5099599;28;19923;-62
2021/09/06 00:56:06;;;;;;;;;;;;;;;17.89;100.00;99621.16;5104981;28;19938;-61
2021/09/06 00:58:31;;;;;;;;;;;;;;;17.42;100.00;99621.78;5081390;28;19920;-61
2021/09/06 01:00:57;;;;;;;;;;;;;;;17.26;100.00;99620.88;5080306;28;19920;-61
2021/09/06 01:03:22;;;;;;;;;;;;;;;17.45;100.00;99631.22;5083043;28;19926;-61
2021/09/06 01:05:48;;;;;;;;;;;;;;;17.32;100.00;99628.38;5084162;28;19985;-60
2021/09/06 01:08:13;;;;;;;;;;;;;;;16.35;100.00;99642.50;5100625;28;19973;-60
2021/09/06 01:10:38;;;;;;;;;;;;;;;16.72;100.00;99641.66;5100681;28;20478;-60
2021/09/06 01:13:04;;;;;;;;;;;;;;;16.79;100.00;99642.22;5100643;28;19923;-62
2021/09/06 01:15:29;;;;;;;;;;;;;;;17.46;100.00;99636.34;5100532;28;19912;-61
2021/09/06 01:17:55;;;;;;;;;;;;;;;17.20;100.00;99642.00;5101585;28;19916;-59
2021/09/06 01:20:20;;;;;;;;;;;;;;;17.64;100.00;99638.94;5100271;28;19922;-61
2021/09/06 01:22:45;;;;;;;;;;;;;;;17.45;100.00;99637.28;5102606;28;19999;-62
2021/09/06 01:25:15;;;;;;;;;;;;;;;17.50;100.00;99642.25;5104935;28;20284;-62
2021/09/06 01:27:40;;;;;;;;;;;;;;;17.03;100.00;99635.84;5100555;28;20419;-58
2021/09/06 01:30:06;;;;;;;;;;;;;;;17.10;100.00;99637.22;5100360;28;19924;-61
2021/09/06 01:32:31;;;;;;;;;;;;;;;17.07;100.00;99634.78;5097745;28;20460;-62
2021/09/06 01:34:57;;;;;;;;;;;;;;;17.08;100.00;99636.50;5082390;28;19916;-62
2021/09/06 01:37:22;;;;;;;;;;;;;;;17.07;100.00;99636.56;5099444;28;19911;-63
2021/09/06 01:39:48;;;;;;;;;;;;;;;17.17;100.00;99642.16;5080944;28;19918;-62
2021/09/06 01:42:13;;;;;;;;;;;;;;;16.92;100.00;99643.31;5098532;28;20575;-60
2021/09/06 01:44:38;;;;;;;;;;;;;;;16.87;100.00;99647.91;5081528;28;20356;-59
2021/09/06 01:47:04;;;;;;;;;;;;;;;16.93;100.00;99645.03;5099366;28;19920;-62
2021/09/06 01:49:29;;;;;;;;;;;;;;;16.83;100.00;99643.75;5100532;28;20425;-62
2021/09/06 01:51:54;;;;;;;;;;;;;;;16.90;100.00;99633.00;5079495;28;19998;-60
2021/09/06 01:54:20;;;;;;;;;;;;;;;16.85;100.00;99636.72;5100762;28;20346;-61
2021/09/06 01:56:45;;;;;;;;;;;;;;;16.77;100.00;99629.28;5102324;28;19965;-60
2021/09/06 01:59:10;;;;;;;;;;;;;;;16.97;100.00;99630.97;5100121;28;20559;-61
2021/09/06 02:01:36;;;;;;;;;;;;;;;17.16;100.00;99625.69;5098586;28;20214;-61
2021/09/06 02:04:01;;;;;;;;;;;;;;;17.30;100.00;99630.22;5085248;28;20373;-60
2021/09/06 02:06:27;;;;;;;;;;;;;;;17.44;100.00;99630.38;5100522;28;19919;-61
2021/09/06 02:08:52;;;;;;;;;;;;;;;17.37;100.00;99625.56;5099205;28;19924;-60
2021/09/06 02:11:17;;;;;;;;;;;;;;;17.20;100.00;99627.22;5102082;28;19919;-63
2021/09/06 02:13:43;;;;;;;;;;;;;;;17.14;100.00;99625.75;5099440;28;19919;-62
2021/09/06 02:16:08;;;;;;;;;;;;;;;17.04;100.00;99626.31;5085049;28;19957;-61
2021/09/06 02:18:33;;;;;;;;;;;;;;;17.07;100.00;99626.16;5099143;28;19964;-59
2021/09/06 02:20:59;;;;;;;;;;;;;;;16.86;100.00;99628.03;5099178;28;19995;-62
2021/09/06 02:23:24;;;;;;;;;;;;;;;16.92;100.00;99625.13;5099805;28;19966;-61
2021/09/06 02:25:50;;;;;;;;;;;;;;;16.91;100.00;99634.69;5102737;28;19959;-61
2021/09/06 02:28:15;;;;;;;;;;;;;;;16.84;100.00;99632.47;5098294;28;19942;-62
2021/09/06 02:30:40;;;;;;;;;;;;;;;16.76;100.00;99627.56;5100018;28;19924;-62
2021/09/06 02:33:06;;;;;;;;;;;;;;;16.48;100.00;99630.63;5096898;28;19927;-61
2021/09/06 02:35:31;;;;;;;;;;;;;;;16.47;100.00;99636.75;5100606;28;20027;-62
2021/09/06 02:37:57;;;;;;;;;;;;;;;16.36;100.00;99637.25;5082410;28;20280;-61
2021/09/06 02:40:22;;;;;;;;;;;;;;;16.63;100.00;99642.94;5099576;28;20156;-60
2021/09/06 02:42:47;;;;;;;;;;;;;;;16.65;100.00;99630.69;5103074;28;19927;-60
2021/09/06 02:45:13;;;;;;;;;;;;;;;16.57;100.00;99638.00;5100437;28;20281;-62
2021/09/06 02:47:39;;;;;;;;;;;;;;;16.62;100.00;99636.03;5083256;28;20439;-62
2021/09/06 02:50:04;;;;;;;;;;;;;;;16.41;100.00;99642.22;5082810;28;19916;-61
2021/09/06 02:52:30;;;;;;;;;;;;;;;16.37;100.00;99648.47;5079993;28;19922;-62
2021/09/06 02:54:55;;;;;;;;;;;;;;;16.63;100.00;99644.69;5081454;28;19917;-62
2021/09/06 02:57:21;;;;;;;;;;;;;;;16.41;100.00;99640.47;5099329;28;19958;-62
2021/09/06 02:59:46;;;;;;;;;;;;;;;16.42;100.00;99641.31;5098551;28;19924;-62
2021/09/06 03:02:12;;;;;;;;;;;;;;;16.62;100.00;99640.38;5099358;28;19920;-61
2021/09/06 03:04:37;;;;;;;;;;;;;;;16.77;100.00;99644.03;5090120;28;19916;-61
2021/09/06 03:07:03;;;;;;;;;;;;;;;16.64;100.00;99642.00;5105930;28;19921;-60
2021/09/06 03:09:28;;;;;;;;;;;;;;;16.53;100.00;99636.44;5081926;28;20002;-60
2021/09/06 03:11:53;;;;;;;;;;;;;;;16.51;100.00;99641.75;5099687;28;19913;-61
2021/09/06 03:14:19;;;;;;;;;;;;;;;16.43;100.00;99630.84;5101721;28;19911;-61
2021/09/06 03:16:44;;;;;;;;;;;;;;;16.28;100.00;99637.59;5083322;28;19916;-62
2021/09/06 03:19:09;;;;;;;;;;;;;;;16.31;100.00;99640.06;5099856;28;20013;-60
2021/09/06 03:21:35;;;;;;;;;;;;;;;16.65;100.00;99635.03;5103219;28;19926;-60
2021/09/06 03:24:00;;;;;;;;;;;;;;;16.73;100.00;99633.75;5099524;28;20003;-59
2021/09/06 03:26:26;;;;;;;;;;;;;;;16.75;100.00;99638.06;5102345;28;20543;-62
2021/09/06 03:28:51;;;;;;;;;;;;;;;16.78;100.00;99630.09;5101173;28;19984;-62
2021/09/06 03:31:17;;;;;;;;;;;;;;;16.68;100.00;99633.16;5085210;28;19936;-63
2021/09/06 03:33:43;;;;;;;;;;;;;;;16.65;100.00;99628.09;5103881;28;19971;-61
2021/09/06 03:36:09;;;;;;;;;;;;;;;16.79;100.00;99629.22;5105984;28;20025;-61
2021/09/06 03:38:34;;;;;;;;;;;;;;;16.71;100.00;99633.00;5099267;28;19994;-61
2021/09/06 03:41:00;;;;;;;;;;;;;;;16.77;100.00;99629.28;5105679;28;20307;-59
2021/09/06 03:43:25;;;;;;;;;;;;;;;16.66;100.00;99627.16;5103476;28;19934;-60
2021/09/06 03:45:51;;;;;;;;;;;;;;;16.77;100.00;99628.44;5083702;28;19922;-62
2021/09/06 03:48:16;;;;;;;;;;;;;;;16.77;100.00;99623.22;5101896;28;19930;-60
2021/09/06 03:50:41;;;;;;;;;;;;;;;16.75;100.00;99625.06;5103842;28;20002;-62
2021/09/06 03:53:07;;;;;;;;;;;;;;;16.79;100.00;99631.81;5102720;28;19919;-62
2021/09/06 03:55:32;;;;;;;;;;;;;;;16.70;100.00;99630.47;5083863;28;19941;-61
2021/09/06 03:57:58;;;;;;;;;;;;;;;16.59;100.00;99636.19;5083445;28;20399;-61
2021/09/06 04:00:23;;;;;;;;;;;;;;;16.81;100.00;99640.38;5100781;28;19922;-61
2021/09/06 04:02:48;;;;;;;;;;;;;;;16.17;100.00;99644.16;5099889;28;19916;-61
2021/09/06 04:05:14;;;;;;;;;;;;;;;16.39;100.00;99649.25;5105004;28;19920;-61
2021/09/06 04:07:39;;;;;;;;;;;;;;;16.34;100.00;99652.06;5103989;28;20306;-60
2021/09/06 04:10:05;;;;;;;;;;;;;;;15.88;100.00;99659.31;5103763;28;19923;-60
2021/09/06 04:12:30;;;;;;;;;;;;;;;16.15;100.00;99661.56;5090114;28;19918;-59
2021/09/06 04:14:56;;;;;;;;;;;;;;;16.14;100.00;99671.13;5105578;28;19920;-59
2021/09/06 04:17:21;;;;;;;;;;;;;;;16.13;100.00;99674.66;5105546;28;19916;-61
2021/09/06 04:19:46;;;;;;;;;;;;;;;16.23;100.00;99669.88;5103840;28;19954;-61
2021/09/06 04:22:12;;;;;;;;;;;;;;;16.38;100.00;99676.16;5070055;28;20019;-61
2021/09/06 04:24:37;;;;;;;;;;;;;;;16.51;100.00;99675.53;5101143;28;19911;-61
2021/09/06 04:27:02;;;;;;;;;;;;;;;16.44;100.00;99673.28;5100520;28;19985;-61
2021/09/06 04:29:28;;;;;;;;;;;;;;;16.50;100.00;99671.25;5101692;28;19928;-61
2021/09/06 04:31:53;;;;;;;;;;;;;;;16.29;100.00;99685.22;5100598;28;19927;-59
2021/09/06 04:34:18;;;;;;;;;;;;;;;16.10;100.00;99677.38;5106858;28;20323;-60
2021/09/06 04:36:44;;;;;;;;;;;;;;;15.95;100.00;99685.84;5103464;28;19912;-61
2021/09/06 04:39:09;;;;;;;;;;;;;;;15.75;100.00;99687.53;5104937;28;19976;-61
2021/09/06 04:41:35;;;;;;;;;;;;;;;15.78;100.00;99682.22;5102693;28;19912;-59
2021/09/06 04:44:00;;;;;;;;;;;;;;;15.77;100.00;99683.13;5104420;28;19947;-61
2021/09/06 04:46:25;;;;;;;;;;;;;;;15.76;100.00;99681.44;5104264;28;19912;-61
2021/09/06 04:48:51;;;;;;;;;;;;;;;15.80;100.00;99688.19;5100041;28;20366;-59
2021/09/06 04:51:16;;;;;;;;;;;;;;;15.78;100.00;99694.34;5089211;28;19923;-60
2021/09/06 04:53:42;;;;;;;;;;;;;;;15.98;100.00;99686.56;5091811;28;21300;-61
2021/09/06 04:56:38;;;;;;;;;;;;;;;15.93;100.00;99682.47;5077837;28;21016;-59
2021/09/06 04:59:04;;;;;;;;;;;;;;;15.83;100.00;99682.88;5072464;28;19955;-58
2021/09/06 05:04:32;;;;;;;;;;;;;;;15.93;100.00;99687.69;5095130;28;20019;-59
2021/09/06 05:07:18;;;;;;;;;;;;;;;15.94;100.00;99689.34;5062719;28;20046;-59
2021/09/06 05:09:54;;;;;;;;;;;;;;;15.94;100.00;99686.75;5068338;28;19920;-61
2021/09/06 05:12:19;;;;;;;;;;;;;;;15.81;100.00;99697.69;5079125;28;19921;-61
2021/09/06 05:14:45;;;;;;;;;;;;;;;15.78;100.00;99695.22;5064420;28;20011;-61
2021/09/06 05:17:10;;;;;;;;;;;;;;;15.90;100.00;99699.03;5083473;28;19938;-61
2021/09/06 05:19:36;;;;;;;;;;;;;;;15.98;100.00;99701.31;5065637;28;20379;-61
2021/09/06 05:22:01;;;;;;;;;;;;;;;16.01;100.00;99702.03;5099198;28;19916;-62
2021/09/06 05:24:26;;;;;;;;;;;;;;;15.95;100.00;99696.25;5096193;28;19924;-61
2021/09/06 05:26:52;;;;;;;;;;;;;;;15.93;100.00;99698.06;5076509;28;19920;-61
2021/09/06 05:29:17;;;;;;;;;;;;;;;15.94;100.00;99699.75;5096741;28;20319;-61
2021/09/06 05:31:42;;;;;;;;;;;;;;;16.03;100.00;99696.75;5078577;28;19931;-61
2021/09/06 05:34:07;;;;;;;;;;;;;;;16.17;100.00;99702.19;5095943;28;19923;-61
2021/09/06 05:36:33;;;;;;;;;;;;;;;16.23;100.00;99696.72;5079251;28;19952;-60
2021/09/06 05:38:58;;;;;;;;;;;;;;;16.14;100.00;99696.28;5096793;28;19961;-59
2021/09/06 05:41:23;;;;;;;;;;;;;;;16.22;100.00;99689.84;5095945;28;19915;-59
2021/09/06 05:43:49;;;;;;;;;;;;;;;16.20;100.00;99696.88;5078348;28;19919;-60
2021/09/06 05:46:14;;;;;;;;;;;;;;;16.30;100.00;99687.72;5099962;28;19959;-59
2021/09/06 05:48:40;;;;;;;;;;;;;;;16.38;100.00;99695.22;5101410;28;19919;-58
2021/09/06 05:51:05;;;;;;;;;;;;;;;16.33;100.00;99698.91;5098476;28;19916;-61
2021/09/06 05:53:30;;;;;;;;;;;;;;;16.48;100.00;99695.63;5088473;28;19989;-61
2021/09/06 05:55:56;;;;;;;;;;;;;;;16.56;100.00;99703.06;5079020;28;19919;-61
2021/09/06 05:58:21;;;;;;;;;;;;;;;16.65;100.00;99708.72;5080559;28;19920;-61
2021/09/06 06:00:46;;;;;;;;;;;;;;;16.69;100.00;99704.19;5098309;28;19947;-61
2021/09/06 06:03:12;;;;;;;;;;;;;;;16.82;100.00;99710.56;5081200;28;20430;-61
2021/09/06 06:05:37;;;;;;;;;;;;;;;16.79;100.00;99712.44;5079684;28;19912;-62
2021/09/06 06:08:02;;;;;;;;;;;;;;;16.87;100.00;99699.94;5066539;28;20387;-61
2021/09/06 06:10:28;;;;;;;;;;;;;;;17.16;100.00;99713.34;5099461;28;20532;-61
2021/09/06 06:12:54;;;;;;;;;;;;;;;17.07;100.00;99710.25;5098392;28;19922;-62
2021/09/06 06:15:20;;;;;;;;;;;;;;;17.33;100.00;99715.97;5081499;28;19924;-61
2021/09/06 06:17:45;;;;;;;;;;;;;;;17.38;100.00;99723.56;5082264;28;19915;-60
2021/09/06 06:20:11;;;;;;;;;;;;;;;17.33;100.00;99724.66;5064533;28;19963;-61
2021/09/06 06:22:36;;;;;;;;;;;;;;;17.42;100.00;99715.53;5064896;28;19973;-61
2021/09/06 06:25:02;;;;;;;;;;;;;;;17.53;100.00;99722.81;5063533;28;20006;-61
2021/09/06 06:27:27;;;;;;;;;;;;;;;17.66;100.00;99723.06;5097299;28;19951;-61
2021/09/06 06:29:52;;;;;;;;;;;;;;;17.70;100.00;99724.59;5081566;28;20440;-61
2021/09/06 06:32:17;;;;;;;;;;;;;;;17.86;100.00;99728.16;5080195;28;19975;-61
2021/09/06 06:34:43;;;;;;;;;;;;;;;17.86;100.00;99728.16;5082093;28;20377;-59
2021/09/06 06:37:08;;;;;;;;;;;;;;;17.96;100.00;99731.13;5081571;28;19912;-61
2021/09/06 06:39:33;;;;;;;;;;;;;;;17.97;100.00;99732.81;5100060;28;19937;-60
2021/09/06 06:41:59;;;;;;;;;;;;;;;18.08;100.00;99732.25;5101169;28;19915;-59
2021/09/06 06:44:24;;;;;;;;;;;;;;;18.11;100.00;99739.91;5096409;28;20543;-59
2021/09/06 06:46:50;;;;;;;;;;;;;;;18.26;100.00;99733.91;5097690;28;20384;-61
2021/09/06 06:49:16;;;;;;;;;;;;;;;18.44;100.00;99734.72;5100649;28;19923;-61
2021/09/06 06:51:41;;;;;;;;;;;;;;;18.70;100.00;99738.56;5098469;28;20359;-61
2021/09/06 06:54:06;;;;;;;;;;;;;;;18.94;100.00;99732.97;5102028;28;20506;-61
2021/09/06 06:56:32;;;;;;;;;;;;;;;19.01;100.00;99742.97;5080833;28;20593;-61
2021/09/06 06:58:57;;;;;;;;;;;;;;;19.11;100.00;99738.13;5085175;28;20372;-61
2021/09/06 07:01:22;;;;;;;;;;;;;;;19.39;100.00;99741.78;5102013;28;19946;-62
2021/09/06 07:03:48;;;;;;;;;;;;;;;19.41;100.00;99739.94;5081207;28;19994;-61
2021/09/06 07:06:13;;;;;;;;;;;;;;;19.54;100.00;99740.88;5085629;28;19916;-60
2021/09/06 07:08:39;;;;;;;;;;;;;;;19.49;100.00;99748.16;5068847;28;19931;-60
2021/09/06 07:11:04;;;;;;;;;;;;;;;19.69;100.00;99748.84;5066740;28;19941;-59
2021/09/06 07:13:30;;;;;;;;;;;;;;;19.81;100.00;99742.88;5084141;28;19916;-62
2021/09/06 07:15:55;;;;;;;;;;;;;;;20.05;100.00;99745.84;5087014;28;20326;-61
2021/09/06 07:18:20;;;;;;;;;;;;;;;20.39;100.00;99742.03;5086448;28;19989;-60
2021/09/06 07:20:46;;;;;;;;;;;;;;;20.56;100.00;99745.41;5090127;28;20303;-60
2021/09/06 07:23:11;;;;;;;;;;;;;;;20.70;100.00;99745.41;5067937;28;19941;-59
2021/09/06 07:25:36;;;;;;;;;;;;;;;21.29;100.00;99745.19;5100505;28;19969;-61
2021/09/06 07:28:02;;;;;;;;;;;;;;;21.30;100.00;99747.72;5086251;28;19920;-61
2021/09/06 07:30:28;;;;;;;;;;;;;;;21.59;100.00;99752.03;5101384;28;19912;-61
2021/09/06 07:32:53;;;;;;;;;;;;;;;21.59;100.00;99752.03;5058957;28;19920;-61
2021/09/06 07:35:19;;;;;;;;;;;;;;;21.37;100.00;99758.63;5082008;28;19916;-61
2021/09/06 07:37:44;;;;;;;;;;;;;;;21.58;100.00;99753.81;5082080;28;19966;-61
2021/09/06 07:40:10;;;;;;;;;;;;;;;21.83;100.00;99757.44;5084172;28;19973;-60
2021/09/06 07:42:36;;;;;;;;;;;;;;;21.84;100.00;99761.72;5087442;28;19912;-60
2021/09/06 07:45:01;;;;;;;;;;;;;;;22.03;100.00;99761.31;5083410;28;20319;-61
2021/09/06 07:47:27;;;;;;;;;;;;;;;22.18;100.00;99764.72;5076778;28;19916;-62
2021/09/06 07:49:52;;;;;;;;;;;;;;;22.27;100.00;99777.22;5081224;28;19916;-61
2021/09/06 07:52:17;;;;;;;;;;;;;;;22.59;100.00;99775.00;5081145;28;20361;-60
2021/09/06 07:54:43;;;;;;;;;;;;;;;22.43;100.00;99775.22;5080863;28;19925;-60
2021/09/06 07:57:08;;;;;;;;;;;;;;;22.39;100.00;99784.25;5082277;28;20006;-58
2021/09/06 07:59:34;;;;;;;;;;;;;;;23.02;100.00;99779.06;5080560;28;19916;-60
2021/09/06 08:01:59;;;;;;;;;;;;;;;22.55;100.00;99784.03;5080425;28;19916;-60
2021/09/06 08:04:26;;;;;;;;;;;;;;;23.05;100.00;99786.72;5078054;28;19924;-60
2021/09/06 08:06:51;;;;;;;;;;;;;;;21.83;100.00;99783.66;5080482;28;19970;-62
2021/09/06 08:09:17;;;;;;;;;;;;;;;21.98;100.00;99785.25;5082188;28;21291;-62
2021/09/06 08:11:45;;;;;;;;;;;;;;;23.01;100.00;99790.50;5081135;28;19912;-63
2021/09/06 08:14:11;;;;;;;;;;;;;;;22.23;100.00;99794.13;5079635;28;19981;-63
2021/09/06 08:16:36;;;;;;;;;;;;;;;23.37;100.00;99790.50;5080492;28;19916;-63
2021/09/06 08:19:02;;;;;;;;;;;;;;;21.89;100.00;99788.47;5082218;28;19971;-62
2021/09/06 08:21:27;;;;;;;;;;;;;;;21.85;100.00;99794.84;5080708;28;19923;-62
2021/09/06 08:23:53;;;;;;;;;;;;;;;22.44;100.00;99792.69;5077604;28;19923;-63
2021/09/06 08:26:20;;;;;;;;;;;;;;;22.42;100.00;99794.56;5079416;28;19963;-63
2021/09/06 08:28:46;;;;;;;;;;;;;;;22.34;100.00;99800.31;5081426;28;19977;-63
2021/09/06 08:31:11;;;;;;;;;;;;;;;23.65;100.00;99796.38;5081708;28;19912;-61
2021/09/06 08:33:36;;;;;;;;;;;;;;;23.57;100.00;99798.72;5099869;28;20049;-62
2021/09/06 08:36:02;;;;;;;;;;;;;;;23.24;100.00;99808.13;5102717;28;19916;-61
2021/09/06 08:38:27;;;;;;;;;;;;;;;22.93;100.00;99806.78;5101284;28;20003;-60
2021/09/06 08:40:53;;;;;;;;;;;;;;;24.44;100.00;99815.03;5102979;28;19919;-64
2021/09/06 08:43:18;;;;;;;;;;;;;;;24.97;100.00;99802.13;5067532;28;19946;-63
2021/09/06 08:45:43;;;;;;;;;;;;;;;23.29;100.00;99806.00;5102238;28;19918;-62
2021/09/06 08:48:09;;;;;;;;;;;;;;;22.37;100.00;99807.13;5101074;28;19912;-62
2021/09/06 08:50:34;;;;;;;;;;;;;;;22.66;100.00;99807.75;5082673;28;19916;-62
2021/09/06 08:53:00;;;;;;;;;;;;;;;23.32;100.00;99811.00;5099599;28;19918;-61
2021/09/06 08:55:25;;;;;;;;;;;;;;;22.98;100.00;99818.63;5101329;28;20365;-61
2021/09/06 08:57:50;;;;;;;;;;;;;;;22.88;100.00;99822.03;5101077;28;19915;-60
2021/09/06 09:00:24;;;;;;;;;;;;;;;23.09;100.00;99820.53;5101708;28;20526;-62
2021/09/06 09:02:49;;;;;;;;;;;;;;;22.58;100.00;99819.75;5099307;28;20022;-62
2021/09/06 09:05:15;;;;;;;;;;;;;;;22.83;100.00;99827.63;5102197;28;20881;-62
2021/09/06 09:07:40;;;;;;;;;;;;;;;23.17;100.00;99828.75;5101823;28;19965;-62
2021/09/06 09:10:08;;;;;;;;;;;;;;;21.81;100.00;99827.50;5101394;28;20006;-62
2021/09/06 09:12:33;;;;;;;;;;;;;;;22.39;100.00;99828.88;5098408;28;20412;-60
2021/09/06 09:14:59;;;;;;;;;;;;;;;22.77;100.00;99828.88;5082604;28;19958;-63
2021/09/06 09:17:24;;;;;;;;;;;;;;;22.87;100.00;99831.69;5072831;28;19957;-63
2021/09/06 09:19:50;;;;;;;;;;;;;;;23.22;100.00;99830.19;5109140;28;19959;-63
2021/09/06 09:22:16;;;;;;;;;;;;;;;23.81;100.00;99819.75;5104922;28;19935;-61
2021/09/06 09:24:42;;;;;;;;;;;;;;;24.21;100.00;99829.94;5101223;28;19919;-61
2021/09/06 09:27:08;;;;;;;;;;;;;;;24.68;100.00;99829.91;5101145;28;20395;-61
2021/09/06 09:29:34;;;;;;;;;;;;;;;24.69;100.00;99831.63;5101176;28;21201;-63
2021/09/06 09:32:04;;;;;;;;;;;;;;;25.87;100.00;99828.31;5100547;28;20015;-62
2021/09/06 09:34:30;;;;;;;;;;;;;;;26.45;100.00;99829.69;5100795;28;19920;-62
2021/09/06 09:36:55;;;;;;;;;;;;;;;28.09;100.00;99833.75;5098230;28;19976;-62
2021/09/06 09:39:21;;;;;;;;;;;;;;;28.13;100.00;99827.19;5099315;28;20422;-63
2021/09/06 09:41:47;;;;;;;;;;;;;;;25.32;90.06;99832.78;5097793;28;19939;-64
2021/09/06 09:44:21;;;;;;;;;;;;;;;26.73;95.36;99830.84;5097420;28;20300;-63
2021/09/06 09:46:56;;;;;;;;;;;;;;;28.14;99.40;99825.38;5096558;28;19965;-63
2021/09/06 09:49:22;;;;;;;;;;;;;;;28.07;87.10;99832.22;5100160;28;19924;-61
2021/09/06 09:51:47;;;;;;;;;;;;;;;26.46;87.37;99828.72;5100432;28;20372;-60
2021/09/06 09:54:13;;;;;;;;;;;;;;;28.00;100.00;99823.16;5082611;28;19915;-60
2021/09/06 09:56:38;;;;;;;;;;;;;;;25.05;88.41;99820.81;5096732;28;19920;-63
2021/09/06 09:59:03;;;;;;;;;;;;;;;24.21;97.56;99825.53;5078184;28;19998;-61
2021/09/06 10:01:30;;;;;;;;;;;;;;;24.99;98.43;99825.72;5096645;28;19966;-63
2021/09/06 10:03:57;;;;;;;;;;;;;;;25.69;94.66;99827.16;5097494;28;19915;-62
2021/09/06 10:06:22;;;;;;;;;;;;;;;27.95;94.10;99821.78;5082598;28;19962;-63
2021/09/06 10:08:47;;;;;;;;;;;;;;;28.93;86.56;99818.88;5080628;28;19951;-63
2021/09/06 10:11:13;;;;;;;;;;;;;;;26.45;82.46;99821.75;5099329;28;19920;-63
2021/09/06 10:13:40;;;;;;;;;;;;;;;26.69;91.08;99818.84;5100625;28;19919;-63
2021/09/06 10:16:05;;;;;;;;;;;;;;;25.97;90.40;99814.38;5099770;28;19959;-63
2021/09/06 10:18:36;;;;;;;;;;;;;;;25.62;90.70;99823.38;5099533;28;19962;-63
2021/09/06 10:21:09;;;;;;;;;;;;;;;25.96;93.06;99813.53;5081397;28;19927;-63
2021/09/06 10:23:40;;;;;;;;;;;;;;;27.13;90.41;99820.25;5080284;28;19927;-63
2021/09/06 10:26:09;;;;;;;;;;;;;;;26.23;90.96;99823.59;5098250;28;20582;-62
2021/09/06 10:28:34;;;;;;;;;;;;;;;25.91;83.64;99812.22;5097927;28;19971;-61
2021/09/06 10:31:00;;;;;;;;;;;;;;;26.95;86.91;99813.09;5095003;28;20342;-63
2021/09/06 10:33:25;;;;;;;;;;;;;;;27.35;88.71;99810.44;5080125;28;19982;-60
2021/09/06 10:36:01;;;;;;;;;;;;;;;25.98;89.05;99808.09;5079293;28;19916;-59
2021/09/06 10:38:34;;;;;;;;;;;;;;;26.38;94.22;99812.69;5078128;28;19920;-59
2021/09/06 10:41:06;;;;;;;;;;;;;;;27.05;86.60;99819.25;5078072;28;19912;-60
2021/09/06 10:43:40;;;;;;;;;;;;;;;26.46;87.99;99813.72;5080029;28;19958;-61
2021/09/06 10:46:05;;;;;;;;;;;;;;;27.85;83.98;99818.31;5079539;28;19951;-59
2021/09/06 10:48:31;;;;;;;;;;;;;;;26.85;88.86;99818.38;5060477;28;19955;-61
2021/09/06 10:50:57;;;;;;;;;;;;;;;25.92;84.36;99813.91;5076703;28;19982;-64
2021/09/06 10:53:23;;;;;;;;;;;;;;;26.58;93.31;99816.28;5076384;28;20444;-62
2021/09/06 10:55:49;;;;;;;;;;;;;;;26.63;96.49;99820.19;5075411;28;20027;-63
2021/09/06 10:58:15;;;;;;;;;;;;;;;27.67;92.94;99820.78;5074637;28;19964;-63
2021/09/06 11:00:40;;;;;;;;;;;;;;;30.10;82.23;99815.41;5076442;28;19951;-61
2021/09/06 11:03:06;;;;;;;;;;;;;;;26.62;93.58;99817.72;5082543;28;19920;-61
2021/09/06 11:05:31;;;;;;;;;;;;;;;27.40;90.29;99821.44;5080599;28;19912;-61
2021/09/06 11:08:03;;;;;;;;;;;;;;;28.68;83.43;99825.69;5077999;28;19942;-61
2021/09/06 11:10:30;;;;;;;;;;;;;;;27.74;82.01;99821.91;5079536;28;19934;-62
2021/09/06 11:12:56;;;;;;;;;;;;;;;28.78;75.96;99822.03;5076570;28;20372;-61
2021/09/06 11:15:31;;;;;;;;;;;;;;;28.19;84.01;99828.44;5082435;28;19912;-59
2021/09/06 11:17:58;;;;;;;;;;;;;;;26.98;81.45;99824.25;5079074;28;19966;-60
2021/09/06 11:20:24;;;;;;;;;;;;;;;27.09;78.89;99820.66;5078376;28;19916;-61
2021/09/06 11:23:00;;;;;;;;;;;;;;;27.42;98.10;99816.88;5079471;28;20002;-60
2021/09/06 11:25:25;;;;;;;;;;;;;;;29.53;78.34;99816.56;5061932;28;19965;-62
2021/09/06 11:27:51;;;;;;;;;;;;;;;29.51;68.76;99807.91;5078491;28;20396;-62
2021/09/06 11:30:22;;;;;;;;;;;;;;;27.76;77.15;99819.13;5077355;28;19924;-63
2021/09/06 11:32:47;;;;;;;;;;;;;;;26.76;74.28;99813.88;5089944;28;19928;-64
2021/09/06 11:35:13;;;;;;;;;;;;;;;28.13;73.26;99818.41;5102836;28;19935;-63
2021/09/06 11:37:38;;;;;;;;;;;;;;;27.53;64.53;99813.25;5104609;28;20338;-62
2021/09/06 11:40:04;;;;;;;;;;;;;;;29.15;64.54;99810.56;5100309;28;19923;-62
2021/09/06 11:42:30;;;;;;;;;;;;;;;27.28;69.31;99817.25;5099345;28;20548;-63
2021/09/06 11:44:57;;;;;;;;;;;;;;;28.90;56.38;99819.19;5101774;28;19916;-61
2021/09/06 11:47:23;;;;;;;;;;;;;;;29.92;83.69;99812.78;5101105;28;19923;-60
2021/09/06 11:49:54;;;;;;;;;;;;;;;27.16;68.75;99823.59;5103704;28;19923;-59
2021/09/06 11:52:33;;;;;;;;;;;;;;;29.47;72.70;99819.84;5102768;28;19916;-59
2021/09/06 11:54:58;;;;;;;;;;;;;;;29.87;61.83;99818.56;5096653;28;19915;-59
2021/09/06 11:57:29;;;;;;;;;;;;;;;29.27;54.03;99823.59;5082605;28;19957;-59
2021/09/06 11:59:55;;;;;;;;;;;;;;;27.54;64.15;99815.75;5101123;28;20018;-62
2021/09/06 12:02:21;;;;;;;;;;;;;;;27.26;66.48;99817.41;5101381;28;20007;-62
2021/09/06 12:04:46;;;;;;;;;;;;;;;27.53;64.28;99808.81;5081413;28;21001;-62
2021/09/06 12:07:12;;;;;;;;;;;;;;;26.66;65.11;99819.97;5099819;28;19922;-62
2021/09/06 12:09:38;;;;;;;;;;;;;;;29.84;69.68;99813.56;5100829;28;19919;-63
2021/09/06 12:12:05;;;;;;;;;;;;;;;30.35;66.55;99822.59;5099409;28;20498;-63
2021/09/06 12:14:41;;;;;;;;;;;;;;;30.48;76.93;99810.72;5099146;28;19931;-62
2021/09/06 12:17:06;;;;;;;;;;;;;;;29.78;59.85;99820.31;5098465;28;20741;-62
2021/09/06 12:19:39;;;;;;;;;;;;;;;28.03;60.60;99822.88;5101067;28;19916;-60
2021/09/06 12:22:12;;;;;;;;;;;;;;;28.52;63.96;99821.81;5102110;28;20010;-60
2021/09/06 12:24:37;;;;;;;;;;;;;;;28.67;66.10;99824.84;5083568;28;19954;-59
2021/09/06 12:27:09;;;;;;;;;;;;;;;27.68;69.59;99821.59;5101635;28;20393;-59
2021/09/06 12:29:34;;;;;;;;;;;;;;;26.18;65.56;99819.63;5102290;28;20365;-59
2021/09/06 12:32:00;;;;;;;;;;;;;;;27.16;69.48;99823.59;5100263;28;19927;-59
2021/09/06 12:34:25;;;;;;;;;;;;;;;27.82;68.72;99817.72;5084426;28;20002;-61